Time;durP1;ratioP1;P1;durP2;ratioP2;P2;SDS_P1;SDS_P2;PMS_P1;PMS_P2;Temp;Humidity;BMP_temperature;BMP_pressure;BME280_temperature;BME280_humidity;BME280_pressure;Samples;Min_cycle;Max_cycle;Signal;HPM_P1;HPM_P2
2022/02/17 00:03:51;;;;;;;0.10;0.00;;;;;;;11.93;100.00;95813.78;10488219;28;20123;-66
2022/02/17 00:08:54;;;;;;;0.00;0.00;;;;;;;12.01;100.00;95789.16;10486465;28;20033;-66
2022/02/17 00:13:58;;;;;;;0.00;0.00;;;;;;;12.15;100.00;95795.13;10502991;28;20416;-66
2022/02/17 00:19:02;;;;;;;1.40;0.00;;;;;;;12.21;100.00;95750.19;10467795;28;20756;-65
2022/02/17 00:24:06;;;;;;;0.00;0.00;;;;;;;12.30;100.00;95766.81;10483560;28;20049;-66
2022/02/17 00:29:10;;;;;;;0.03;0.00;;;;;;;12.35;100.00;95785.00;10484819;28;20072;-65
2022/02/17 00:34:13;;;;;;;0.00;0.00;;;;;;;12.55;100.00;95760.31;10483322;28;20486;-64
2022/02/17 00:39:17;;;;;;;2.28;0.10;;;;;;;12.35;100.00;95763.41;10485682;28;20075;-66
2022/02/17 00:44:25;;;;;;;0.03;0.00;;;;;;;12.36;100.00;95746.16;10484261;28;20060;-66
2022/02/17 00:49:30;;;;;;;0.43;0.00;;;;;;;12.37;100.00;95727.00;10472032;28;20083;-65
2022/02/17 00:54:33;;;;;;;0.00;0.00;;;;;;;12.43;100.00;95703.63;10500557;28;20045;-66
2022/02/17 00:59:37;;;;;;;0.00;0.00;;;;;;;12.60;100.00;95733.41;10481827;28;20517;-66
2022/02/17 01:04:41;;;;;;;0.00;0.00;;;;;;;12.53;100.00;95725.44;10483405;28;20072;-66
2022/02/17 01:09:44;;;;;;;0.00;0.00;;;;;;;12.54;100.00;95728.97;10483133;28;20040;-66
2022/02/17 01:14:49;;;;;;;0.00;0.00;;;;;;;12.60;100.00;95739.63;10500136;28;20131;-66
2022/02/17 01:19:52;;;;;;;0.00;0.00;;;;;;;12.57;100.00;95739.28;10483091;28;20132;-66
2022/02/17 01:24:55;;;;;;;1.00;0.10;;;;;;;12.72;100.00;95742.28;10483639;28;20135;-65
2022/02/17 01:30:00;;;;;;;0.05;0.05;;;;;;;12.58;100.00;95763.34;10481971;28;20051;-65
2022/02/17 01:35:06;;;;;;;0.00;0.00;;;;;;;12.34;100.00;95741.00;10483444;28;20819;-67
2022/02/17 01:40:12;;;;;;;0.00;0.00;;;;;;;12.30;100.00;95745.22;10480546;28;20048;-65
2022/02/17 01:45:16;;;;;;;0.10;0.00;;;;;;;12.33;100.00;95748.28;10483719;28;20074;-66
2022/02/17 01:50:19;;;;;;;0.00;0.00;;;;;;;12.40;100.00;95731.94;10461412;28;20408;-66
2022/02/17 01:55:24;;;;;;;0.00;0.00;;;;;;;12.36;100.00;95729.97;10482963;28;20103;-66
2022/02/17 02:00:28;;;;;;;0.00;0.00;;;;;;;12.43;100.00;95727.94;10484050;28;20048;-64
2022/02/17 02:05:32;;;;;;;0.20;0.00;;;;;;;12.57;100.00;95696.91;10442848;28;20458;-66
2022/02/17 02:10:36;;;;;;;0.38;0.00;;;;;;;12.85;100.00;95692.56;10482453;28;20059;-67
2022/02/17 02:15:50;;;;;;;0.00;0.00;;;;;;;12.80;100.00;95654.63;10482745;28;20060;-66
2022/02/17 02:20:58;;;;;;;0.30;0.10;;;;;;;12.81;100.00;95633.84;10463791;28;20045;-66
2022/02/17 02:26:09;;;;;;;0.10;0.08;;;;;;;12.70;100.00;95636.34;10481106;28;20052;-66
2022/02/17 02:31:13;;;;;;;0.10;0.00;;;;;;;12.79;100.00;95640.31;10482307;28;20068;-65
2022/02/17 02:36:18;;;;;;;0.10;0.10;;;;;;;12.53;100.00;95633.63;10481259;28;20048;-66
2022/02/17 02:41:32;;;;;;;0.43;0.00;;;;;;;12.35;100.00;95607.66;10489657;28;20048;-66
2022/02/17 02:46:35;;;;;;;0.10;0.00;;;;;;;12.20;100.00;95605.50;10475713;28;20473;-65
2022/02/17 02:51:41;;;;;;;0.20;0.10;;;;;;;12.06;100.00;95579.84;10469490;28;20052;-66
2022/02/17 02:56:45;;;;;;;3.05;0.38;;;;;;;11.42;100.00;95605.78;10490049;28;20052;-66
2022/02/17 03:01:48;;;;;;;0.73;0.10;;;;;;;10.88;100.00;95627.44;10490519;28;20071;-66
2022/02/17 03:06:53;;;;;;;0.68;0.10;;;;;;;10.71;100.00;95640.75;10481481;28;20048;-65
2022/02/17 03:11:58;;;;;;;0.38;0.10;;;;;;;10.71;100.00;95625.44;10478588;28;20473;-65
2022/02/17 03:17:02;;;;;;;0.20;0.10;;;;;;;10.61;100.00;95628.69;10480045;28;20048;-66
2022/02/17 03:22:08;;;;;;;0.65;0.08;;;;;;;10.62;100.00;95626.84;10477478;28;20044;-67
2022/02/17 03:27:14;;;;;;;0.30;0.10;;;;;;;10.82;100.00;95633.78;10487444;28;20044;-66
2022/02/17 03:32:19;;;;;;;0.10;0.10;;;;;;;10.91;100.00;95610.81;10485587;28;20139;-66
2022/02/17 03:37:25;;;;;;;0.15;0.03;;;;;;;11.13;100.00;95596.78;10487100;28;20044;-66
2022/02/17 03:42:28;;;;;;;2.78;0.17;;;;;;;11.15;100.00;95646.69;10486260;28;20098;-66
2022/02/17 03:47:37;;;;;;;0.85;0.17;;;;;;;10.94;100.00;95613.88;10486248;28;20139;-66
2022/02/17 03:52:43;;;;;;;0.40;0.20;;;;;;;10.99;100.00;95667.06;10487259;28;20266;-68
2022/02/17 03:57:51;;;;;;;2.88;0.40;;;;;;;10.57;100.00;95677.84;10484077;28;20044;-66
2022/02/17 04:03:02;;;;;;;0.80;0.22;;;;;;;10.58;100.00;95682.16;10482656;28;20048;-66
2022/02/17 04:08:10;;;;;;;0.93;0.30;;;;;;;10.54;100.00;95738.34;10483119;28;20047;-66
2022/02/17 04:13:17;;;;;;;5.07;0.47;;;;;;;9.05;100.00;95820.59;10480334;28;20052;-64
2022/02/17 04:18:22;;;;;;;5.82;0.85;;;;;;;7.94;100.00;95837.47;10479053;28;20102;-62
2022/02/17 04:23:56;;;;;;;4.65;0.88;;;;;;;7.60;100.00;95830.50;10478954;28;20064;-65
2022/02/17 04:29:06;;;;;;;3.45;0.63;;;;;;;7.39;100.00;95892.09;10477777;28;20044;-65
2022/02/17 04:34:13;;;;;;;7.40;0.85;;;;;;;7.35;100.00;95877.44;10476816;28;20304;-65
2022/02/17 04:39:18;;;;;;;8.15;1.17;;;;;;;7.32;100.00;95904.66;10479903;28;20326;-65
2022/02/17 04:44:22;;;;;;;2.40;0.55;;;;;;;7.28;100.00;95943.56;10480246;28;20523;-62
2022/02/17 04:49:26;;;;;;;6.72;1.02;;;;;;;7.25;100.00;95941.28;10480148;28;20101;-65
2022/02/17 04:54:30;;;;;;;10.80;1.10;;;;;;;7.24;100.00;95934.28;10481481;28;20412;-66
2022/02/17 04:59:34;;;;;;;6.32;1.00;;;;;;;7.29;100.00;96014.84;10478693;28;20052;-66
2022/02/17 05:04:38;;;;;;;3.83;0.93;;;;;;;7.32;100.00;96017.13;10476192;28;20049;-66
2022/02/17 05:09:46;;;;;;;11.05;1.20;;;;;;;7.21;100.00;96052.50;10476482;28;20044;-66
2022/02/17 05:14:51;;;;;;;4.53;0.80;;;;;;;7.02;100.00;96032.63;10476002;28;20060;-63
2022/02/17 05:19:57;;;;;;;2.40;0.60;;;;;;;7.01;100.00;96026.44;10478846;28;20056;-65
2022/02/17 05:25:16;;;;;;;1.75;0.47;;;;;;;7.15;100.00;96016.66;10436034;28;20841;-66
2022/02/17 05:30:40;;;;;;;4.22;0.80;;;;;;;7.19;100.00;96051.88;10477757;28;20049;-67
2022/02/17 05:36:04;;;;;;;4.95;0.98;;;;;;;7.17;100.00;96027.16;10472006;28;20242;-66
2022/02/17 05:41:28;;;;;;;5.30;0.80;;;;;;;6.91;100.00;96074.16;10478914;28;21296;-67
2022/02/17 05:46:32;;;;;;;2.20;0.60;;;;;;;6.96;100.00;96036.09;10474686;28;20091;-66
2022/02/17 05:51:36;;;;;;;1.73;0.60;;;;;;;7.01;100.00;96074.63;10478514;28;20108;-67
2022/02/17 05:56:40;;;;;;;1.33;0.60;;;;;;;7.12;100.00;96059.03;10477541;28;20037;-67
2022/02/17 06:01:43;;;;;;;2.03;0.80;;;;;;;6.94;100.00;96079.13;10478850;28;20067;-66
2022/02/17 06:06:49;;;;;;;3.58;0.98;;;;;;;6.95;100.00;96064.72;10479151;28;20048;-66
2022/02/17 06:11:53;;;;;;;2.80;0.88;;;;;;;7.04;100.00;96065.41;10479430;28;20135;-66
2022/02/17 06:16:56;;;;;;;2.72;0.90;;;;;;;6.97;100.00;96068.03;10474975;28;20100;-65
2022/02/17 06:22:00;;;;;;;5.30;1.20;;;;;;;7.01;100.00;96087.19;10492707;28;20453;-65
2022/02/17 06:27:05;;;;;;;4.30;1.05;;;;;;;7.01;100.00;96090.69;10480374;28;20133;-66
2022/02/17 06:32:09;;;;;;;4.55;1.25;;;;;;;7.52;100.00;96110.13;10487199;28;20567;-66
2022/02/17 06:37:12;;;;;;;5.95;1.20;;;;;;;7.48;100.00;96087.44;10486074;28;20505;-65
2022/02/17 06:42:16;;;;;;;4.35;1.25;;;;;;;7.48;100.00;96128.47;10500747;28;20090;-67
2022/02/17 06:47:20;;;;;;;4.35;1.02;;;;;;;7.55;100.00;96141.88;10483572;28;20143;-67
2022/02/17 06:52:23;;;;;;;6.53;1.42;;;;;;;7.73;100.00;96125.28;10485637;28;20035;-66
2022/02/17 06:57:28;;;;;;;4.68;1.27;;;;;;;7.78;100.00;96170.22;10483701;28;20302;-69
2022/02/17 07:02:33;;;;;;;5.47;1.30;;;;;;;7.77;100.00;96180.09;10490700;28;20202;-65
2022/02/17 07:07:36;;;;;;;4.88;1.30;;;;;;;7.77;100.00;96216.81;10487165;28;20040;-66
2022/02/17 07:12:45;;;;;;;4.53;0.90;;;;;;;6.96;100.00;96290.38;10485310;28;20044;-66
2022/02/17 07:17:50;;;;;;;5.03;1.20;;;;;;;6.18;100.00;96286.44;10481717;28;20040;-71
2022/02/17 07:22:53;;;;;;;4.90;1.20;;;;;;;6.14;100.00;96299.34;10484020;28;20047;-67
2022/02/17 07:27:57;;;;;;;5.03;1.20;;;;;;;6.25;100.00;96287.34;10482246;28;20102;-67
2022/02/17 07:33:01;;;;;;;5.00;1.38;;;;;;;6.71;100.00;96278.22;10482976;28;20044;-68
2022/02/17 07:38:07;;;;;;;5.93;1.48;;;;;;;6.79;100.00;96280.75;10483931;28;20409;-66
2022/02/17 07:43:11;;;;;;;7.75;1.38;;;;;;;7.24;100.00;96298.47;10484452;28;20044;-65
2022/02/17 07:48:15;;;;;;;6.07;1.30;;;;;;;7.36;100.00;96313.00;10480018;28;20147;-63
2022/02/17 07:53:18;;;;;;;6.53;1.38;;;;;;;7.33;100.00;96291.97;10479972;28;20094;-63
2022/02/17 07:58:24;;;;;;;3.78;0.98;;;;;;;7.26;100.00;96363.38;10481128;28;20045;-66
2022/02/17 08:03:27;;;;;;;3.50;1.20;;;;;;;6.99;100.00;96344.38;10478906;28;20491;-65
2022/02/17 08:08:30;;;;;;;3.15;0.98;;;;;;;6.79;100.00;96355.69;10478201;28;20056;-65
2022/02/17 08:13:34;;;;;;;3.30;0.98;;;;;;;6.73;100.00;96375.19;10481979;28;20143;-65
2022/02/17 08:18:38;;;;;;;4.15;0.93;;;;;;;6.63;100.00;96430.81;10481858;28;20466;-65
2022/02/17 08:24:01;;;;;;;1.75;0.80;;;;;;;6.16;100.00;96382.88;10481202;28;20044;-65
2022/02/17 08:29:12;;;;;;;2.67;0.50;;;;;;;6.35;100.00;96433.31;10482899;28;20052;-65
2022/02/17 08:34:16;;;;;;;3.70;0.90;;;;;;;6.25;100.00;96423.72;10482336;28;20095;-63
2022/02/17 08:39:22;;;;;;;2.65;0.70;;;;;;;6.22;100.00;96455.34;10481212;28;20409;-66
2022/02/17 08:44:27;;;;;;;3.60;1.15;;;;;;;6.12;100.00;96424.34;10479003;28;20056;-64
2022/02/17 08:49:30;;;;;;;5.40;0.93;;;;;;;6.16;100.00;96440.84;10480674;28;20139;-62
2022/02/17 08:54:34;;;;;;;2.67;0.90;;;;;;;6.19;100.00;96439.66;10481690;28;20181;-65
2022/02/17 08:59:42;;;;;;;1.38;0.60;;;;;;;6.36;100.00;96457.19;10477596;28;20033;-65
2022/02/17 09:04:46;;;;;;;4.03;1.10;;;;;;;6.55;100.00;96476.38;10480316;28;20132;-66
2022/02/17 09:09:49;;;;;;;2.13;0.77;;;;;;;6.53;100.00;96505.16;10476145;28;20574;-64
2022/02/17 09:14:54;;;;;;;4.53;1.00;;;;;;;6.35;100.00;96551.81;10478393;28;20037;-64
2022/02/17 09:19:58;;;;;;;1.70;0.40;;;;;;;5.94;100.00;96510.19;10477014;28;20040;-65
2022/02/17 09:25:02;;;;;;;1.77;0.60;;;;;;;5.48;100.00;96540.38;10478957;28;20118;-65
2022/02/17 09:30:09;;;;;;;1.77;0.60;;;;;;;5.39;100.00;96469.31;10480317;28;20151;-63
2022/02/17 09:35:13;;;;;;;1.23;0.38;;;;;;;5.44;100.00;96548.91;10476441;28;20041;-64
2022/02/17 09:40:20;;;;;;;1.00;0.50;;;;;;;5.35;100.00;96605.03;10480479;28;20119;-61
2022/02/17 09:45:26;;;;;;;1.23;0.40;;;;;;;5.33;100.00;96713.03;10474397;28;20413;-64
2022/02/17 09:50:30;;;;;;;1.65;0.60;;;;;;;5.40;100.00;96586.66;10478763;28;20059;-60
2022/02/17 09:55:34;;;;;;;2.85;0.70;;;;;;;5.52;100.00;96604.97;10479962;28;20126;-63
2022/02/17 10:00:40;;;;;;;3.00;0.80;;;;;;;5.57;100.00;96687.25;10481891;28;20402;-63
2022/02/17 10:06:08;;;;;;;3.13;0.70;;;;;;;5.58;100.00;96616.78;10487256;28;20137;-64
2022/02/17 10:11:28;;;;;;;2.30;0.70;;;;;;;5.78;100.00;96615.34;10483805;28;20029;-65
2022/02/17 10:16:51;;;;;;;4.50;1.17;;;;;;;6.00;100.00;96659.16;10491201;28;20053;-65
2022/02/17 10:22:02;;;;;;;4.55;0.98;;;;;;;6.07;100.00;96624.53;10494491;28;20093;-65
2022/02/17 10:27:08;;;;;;;3.50;1.20;;;;;;;5.99;100.00;96708.31;10490681;28;20584;-63
2022/02/17 10:32:14;;;;;;;3.60;1.08;;;;;;;5.93;100.00;96660.03;10490431;28;20410;-64
2022/02/17 10:37:38;;;;;;;4.55;0.98;;;;;;;5.94;100.00;96683.91;10490135;28;20075;-65
2022/02/17 10:42:41;;;;;;;6.65;1.20;;;;;;;6.19;100.00;96701.66;10488353;28;20406;-62
2022/02/17 10:48:14;;;;;;;5.15;1.10;;;;;;;6.35;100.00;96701.56;10488118;28;20061;-63
2022/02/17 10:53:19;;;;;;;3.60;1.10;;;;;;;6.71;100.00;96701.00;10486042;28;20182;-61
2022/02/17 10:58:27;;;;;;;2.35;1.00;;;;;;;6.93;100.00;96733.25;10486127;28;20144;-62
2022/02/17 11:03:34;;;;;;;5.45;1.00;;;;;;;6.93;100.00;96719.88;10483837;28;20504;-62
2022/02/17 11:08:44;;;;;;;3.78;1.33;;;;;;;6.98;100.00;96713.97;10484740;28;20045;-59
2022/02/17 11:13:49;;;;;;;4.97;1.10;;;;;;;7.15;100.00;96712.00;10476885;28;20179;-62
2022/02/17 11:18:58;;;;;;;2.60;0.85;;;;;;;7.16;100.00;96725.22;10486116;28;20051;-63
2022/02/17 11:24:05;;;;;;;3.13;0.90;;;;;;;7.21;100.00;96705.91;10484278;28;20151;-60
2022/02/17 11:29:26;;;;;;;4.88;0.93;;;;;;;7.28;100.00;96714.06;10485898;28;20045;-60
2022/02/17 11:34:41;;;;;;;3.90;1.20;;;;;;;7.30;100.00;96696.78;10482014;28;20044;-61
2022/02/17 11:39:58;;;;;;;3.22;1.20;;;;;;;7.44;100.00;96710.38;10483601;28;20056;-63
2022/02/17 11:45:10;;;;;;;3.15;0.77;;;;;;;7.45;100.00;96679.91;10483014;28;20056;-62
2022/02/17 11:50:39;;;;;;;4.78;0.90;;;;;;;7.42;100.00;96749.91;10480341;28;20047;-62
2022/02/17 11:55:43;;;;;;;3.55;1.00;;;;;;;7.49;100.00;96740.13;10478319;28;20401;-62
2022/02/17 12:00:46;;;;;;;3.47;1.00;;;;;;;7.36;100.00;96784.44;10482564;28;20089;-65
2022/02/17 12:05:52;;;;;;;4.13;0.90;;;;;;;7.23;100.00;96762.81;10484498;28;20110;-60
2022/02/17 12:11:15;;;;;;;2.80;0.80;;;;;;;7.27;100.00;96772.13;10483024;28;20044;-62
2022/02/17 12:16:33;;;;;;;3.17;0.90;;;;;;;7.22;100.00;96804.00;10480401;28;20496;-63
2022/02/17 12:21:38;;;;;;;2.70;0.90;;;;;;;7.35;100.00;96816.78;10478247;28;20055;-64
2022/02/17 12:26:45;;;;;;;2.92;1.02;;;;;;;7.41;100.00;96840.16;10493470;28;20361;-61
2022/02/17 12:31:49;;;;;;;4.97;1.27;;;;;;;7.46;100.00;96842.31;10480440;28;20500;-62
2022/02/17 12:36:53;;;;;;;3.97;0.93;;;;;;;7.53;100.00;96845.94;10480153;28;20049;-63
2022/02/17 12:41:59;;;;;;;4.93;1.02;;;;;;;7.77;100.00;96833.31;10471577;28;20743;-62
2022/02/17 12:47:02;;;;;;;4.72;1.00;;;;;;;7.88;100.00;96873.09;10478672;28;20052;-64
2022/02/17 12:52:14;;;;;;;4.88;1.17;;;;;;;7.93;100.00;96854.59;10476003;28;20059;-64
2022/02/17 12:57:17;;;;;;;4.65;1.08;;;;;;;7.85;100.00;96858.19;10475759;28;20043;-64
2022/02/17 13:02:22;;;;;;;5.47;1.40;;;;;;;7.94;100.00;96872.34;10476986;28;20043;-64
2022/02/17 13:07:33;;;;;;;3.55;1.10;;;;;;;7.92;100.00;96898.53;10476019;28;20170;-63
2022/02/17 13:12:38;;;;;;;3.42;1.00;;;;;;;8.01;100.00;96910.84;10477154;28;20139;-63
2022/02/17 13:17:44;;;;;;;3.83;1.10;;;;;;;8.05;100.00;96889.84;10479209;28;20080;-70
2022/02/17 13:22:52;;;;;;;6.93;1.70;;;;;;;8.21;100.00;96878.09;10474190;28;20048;-63
2022/02/17 13:27:57;;;;;;;3.75;1.40;;;;;;;8.54;100.00;96887.66;10473989;28;20058;-64
2022/02/17 13:33:01;;;;;;;4.35;1.20;;;;;;;8.41;100.00;96869.53;10471704;28;20043;-64
2022/02/17 13:38:09;;;;;;;5.78;1.30;;;;;;;8.81;100.00;96893.38;10470266;28;20447;-65
2022/02/17 13:43:11;;;;;;;4.90;1.20;;;;;;;8.80;94.47;96924.75;10472172;28;20046;-60
2022/02/17 13:48:31;;;;;;;4.10;1.13;;;;;;;8.88;100.00;96913.09;10475733;28;20052;-62
2022/02/17 13:53:39;;;;;;;3.85;1.13;;;;;;;8.75;88.86;96916.44;10477024;28;20126;-63
2022/02/17 13:58:45;;;;;;;2.22;0.90;;;;;;;8.63;86.48;96929.50;10471634;28;20049;-61
2022/02/17 14:03:48;;;;;;;3.15;1.08;;;;;;;8.59;88.53;96949.66;10471337;28;20048;-57
2022/02/17 14:08:54;;;;;;;5.72;0.98;;;;;;;8.56;74.76;97009.94;10474703;28;20041;-61
2022/02/17 14:13:57;;;;;;;2.42;0.93;;;;;;;8.54;71.72;96919.88;10469290;28;20096;-56
2022/02/17 14:19:09;;;;;;;3.75;0.98;;;;;;;8.54;69.43;96973.56;10475826;28;20836;-58
2022/02/17 14:24:14;;;;;;;1.75;0.80;;;;;;;8.51;68.54;96942.56;10472784;28;20045;-55
2022/02/17 14:29:17;;;;;;;4.22;1.27;;;;;;;8.52;76.44;96959.47;10474788;28;20051;-60
2022/02/17 14:34:20;;;;;;;3.53;1.05;;;;;;;8.51;75.49;96971.22;10472355;28;20047;-59
2022/02/17 14:39:26;;;;;;;3.10;0.93;;;;;;;8.52;70.42;96975.59;10476194;28;20109;-62
2022/02/17 14:44:29;;;;;;;2.42;0.80;;;;;;;8.49;71.64;97003.63;10472403;28;20584;-60
2022/02/17 14:49:32;;;;;;;3.10;0.95;;;;;;;8.48;67.62;97028.81;10479556;28;20111;-63
2022/02/17 14:54:37;;;;;;;3.08;0.98;;;;;;;8.52;66.06;96995.22;10484141;28;20103;-56
2022/02/17 14:59:40;;;;;;;1.95;0.82;;;;;;;8.51;66.82;97028.44;10483862;28;20051;-64
2022/02/17 15:04:43;;;;;;;5.10;1.35;;;;;;;8.44;75.56;97062.34;10482079;28;20037;-57
2022/02/17 15:09:48;;;;;;;3.53;1.15;;;;;;;8.37;79.59;97035.41;10482321;28;20458;-63
2022/02/17 15:14:51;;;;;;;2.15;0.90;;;;;;;8.16;80.41;97062.94;10481046;28;20535;-57
2022/02/17 15:25:17;;;;;;;2.92;0.90;;;;;;;8.04;75.18;97069.72;10480729;28;20137;-55
2022/02/17 15:30:22;;;;;;;2.38;0.80;;;;;;;7.92;73.91;97062.09;10480468;28;20086;-57
2022/02/17 15:35:25;;;;;;;3.35;1.02;;;;;;;7.78;80.17;97071.72;10478259;28;20052;-60
2022/02/17 15:40:30;;;;;;;3.83;1.10;;;;;;;7.83;79.82;97076.53;10483181;28;20408;-61
2022/02/17 15:45:33;;;;;;;3.33;1.10;;;;;;;7.79;82.65;97068.03;10480486;28;20082;-69
2022/02/17 15:50:37;;;;;;;3.70;1.10;;;;;;;7.73;83.55;97098.22;10437401;28;20156;-57
2022/02/17 15:55:41;;;;;;;4.63;1.05;;;;;;;7.63;88.67;97095.75;10438326;28;20382;-56
2022/02/17 16:00:50;;;;;;;3.28;0.90;;;;;;;7.55;89.68;97090.44;10440447;28;20472;-59
2022/02/17 16:05:56;;;;;;;5.75;0.90;;;;;;;7.41;98.83;97092.00;10435638;28;20044;-59
2022/02/17 16:11:02;;;;;;;4.10;0.90;;;;;;;7.44;86.96;97099.69;10440040;28;20045;-59
2022/02/17 16:16:07;;;;;;;2.55;1.00;;;;;;;7.22;97.27;97106.66;10440122;28;20124;-60
2022/02/17 16:21:11;;;;;;;2.25;0.80;;;;;;;7.18;93.68;97124.06;10438135;28;20072;-65
2022/02/17 16:26:16;;;;;;;2.75;0.98;;;;;;;7.30;100.00;97120.03;10437648;28;20396;-67
2022/02/17 16:31:20;;;;;;;5.05;1.10;;;;;;;6.92;100.00;97143.88;10437035;28;20511;-66
2022/02/17 16:36:23;;;;;;;3.42;0.85;;;;;;;6.76;100.00;97142.88;10437749;28;20037;-56
2022/02/17 16:41:33;;;;;;;3.65;1.13;;;;;;;6.74;100.00;97152.94;10437362;28;20462;-63
2022/02/17 16:46:37;;;;;;;2.90;0.93;;;;;;;6.79;100.00;97174.66;10437953;28;20072;-60
2022/02/17 16:51:40;;;;;;;3.05;0.98;;;;;;;6.75;100.00;97186.75;10439132;28;20049;-66
2022/02/17 16:56:46;;;;;;;3.80;0.95;;;;;;;6.82;99.94;97183.38;10436853;28;20052;-62
2022/02/17 17:01:50;;;;;;;2.90;0.90;;;;;;;6.71;100.00;97187.22;10435298;28;20051;-60
2022/02/17 17:06:53;;;;;;;5.22;1.30;;;;;;;6.72;100.00;97203.13;10432953;28;20428;-61
2022/02/17 17:11:57;;;;;;;3.60;1.10;;;;;;;6.68;100.00;97199.09;10434831;28;20052;-66
2022/02/17 17:17:01;;;;;;;3.35;1.00;;;;;;;6.63;100.00;97217.50;10436852;28;20666;-58
2022/02/17 17:22:04;;;;;;;4.55;1.10;;;;;;;6.66;100.00;97233.22;10435365;28;20135;-64
2022/02/17 17:27:10;;;;;;;3.88;1.23;;;;;;;6.76;100.00;97252.63;10437813;28;20385;-63
2022/02/17 17:32:13;;;;;;;4.25;1.10;;;;;;;6.72;100.00;97259.31;10437058;28;20749;-63
2022/02/17 17:37:20;;;;;;;2.67;0.90;;;;;;;6.16;100.00;97280.41;10433674;28;20052;-61
2022/02/17 17:42:24;;;;;;;2.38;1.00;;;;;;;5.74;100.00;97295.41;10430486;28;20044;-62
2022/02/17 17:47:28;;;;;;;3.17;0.90;;;;;;;5.45;100.00;97307.25;10436722;28;20060;-60
2022/02/17 17:52:31;;;;;;;3.55;0.90;;;;;;;5.51;100.00;97314.63;10438623;28;20049;-59
2022/02/17 17:57:35;;;;;;;2.60;0.90;;;;;;;5.46;100.00;97297.41;10436926;28;20045;-62
2022/02/17 18:02:39;;;;;;;2.65;0.90;;;;;;;5.50;100.00;97312.13;10436397;28;20124;-60
2022/02/17 18:07:42;;;;;;;2.30;0.90;;;;;;;5.61;100.00;97319.03;10436284;28;20058;-62
2022/02/17 18:12:47;;;;;;;3.33;1.00;;;;;;;5.64;100.00;97310.69;10434248;28;20128;-60
2022/02/17 18:17:50;;;;;;;5.40;1.00;;;;;;;5.70;100.00;97352.84;10432983;28;20041;-61
2022/02/17 18:22:55;;;;;;;3.53;1.02;;;;;;;5.75;100.00;97331.81;10437900;28;20413;-61
2022/02/17 18:28:00;;;;;;;3.75;1.20;;;;;;;5.80;100.00;97339.34;10446437;28;20579;-65
2022/02/17 18:33:04;;;;;;;3.30;1.02;;;;;;;5.86;100.00;97339.56;10446380;28;20561;-61
2022/02/17 18:38:11;;;;;;;4.10;0.98;;;;;;;6.05;100.00;97364.44;10448866;28;20053;-62
2022/02/17 18:43:15;;;;;;;7.38;1.23;;;;;;;6.17;100.00;97381.03;10444825;28;20051;-64
2022/02/17 18:48:19;;;;;;;4.45;1.15;;;;;;;5.80;100.00;97403.50;10461398;28;20053;-61
2022/02/17 18:53:25;;;;;;;3.33;1.20;;;;;;;5.49;100.00;97418.13;10449197;28;20039;-64
2022/02/17 18:58:30;;;;;;;4.35;1.13;;;;;;;5.40;100.00;97393.19;10453311;28;20034;-57
2022/02/17 19:03:34;;;;;;;4.57;1.35;;;;;;;5.43;100.00;97417.91;10437328;28;20469;-60
2022/02/17 19:14:44;;;;;;;4.57;1.40;;;;;;;5.56;100.00;97394.31;10438600;28;20135;-60
2022/02/17 19:19:47;;;;;;;6.28;1.35;;;;;;;5.76;100.00;97396.81;10435987;28;20072;-59
2022/02/17 19:24:50;;;;;;;2.95;1.13;;;;;;;6.10;100.00;97409.44;10438144;28;20049;-56
2022/02/17 19:29:55;;;;;;;5.93;1.42;;;;;;;6.13;100.00;97409.09;10439705;28;20048;-59
2022/02/17 19:34:58;;;;;;;5.32;1.20;;;;;;;6.02;100.00;97423.56;10440949;28;20121;-60
2022/02/17 19:40:01;;;;;;;5.63;1.20;;;;;;;6.03;100.00;97456.47;10441631;28;20136;-61
2022/02/17 19:45:09;;;;;;;4.00;1.20;;;;;;;6.10;100.00;97469.06;10438524;28;20081;-59
2022/02/17 19:50:13;;;;;;;3.58;1.17;;;;;;;6.20;100.00;97462.78;10436958;28;20060;-62
2022/02/17 19:55:17;;;;;;;3.80;0.95;;;;;;;6.26;100.00;97488.91;10430856;28;20119;-62
2022/02/17 20:00:22;;;;;;;5.32;1.00;;;;;;;6.15;100.00;97480.16;10440345;28;20523;-65
2022/02/17 20:05:26;;;;;;;3.55;1.20;;;;;;;6.11;100.00;97485.97;10437779;28;20057;-60
2022/02/17 20:10:30;;;;;;;4.13;1.13;;;;;;;5.99;100.00;97482.66;10439846;28;20044;-65
2022/02/17 20:15:35;;;;;;;3.35;0.93;;;;;;;5.98;100.00;97497.03;10437780;28;20056;-65
2022/02/17 20:20:38;;;;;;;4.28;1.10;;;;;;;6.01;100.00;97539.53;10437571;28;20517;-63
2022/02/17 20:25:41;;;;;;;5.35;1.35;;;;;;;5.79;100.00;97509.59;10434960;28;20043;-65
2022/02/17 20:30:47;;;;;;;4.63;1.13;;;;;;;5.88;100.00;97523.84;10436661;28;20044;-65
2022/02/17 20:35:50;;;;;;;3.60;1.02;;;;;;;5.75;100.00;97593.72;10436273;28;20037;-65
2022/02/17 20:40:53;;;;;;;5.00;1.38;;;;;;;5.77;100.00;97543.63;10437523;28;20049;-65
2022/02/17 20:56:39;;;;;;;3.60;0.93;;;;;;;5.65;100.00;97574.25;10433309;28;20523;-65
2022/02/17 21:01:43;;;;;;;2.90;1.00;;;;;;;5.63;100.00;97618.97;10435560;28;20055;-64
2022/02/17 21:06:49;;;;;;;3.35;0.90;;;;;;;5.69;100.00;97615.72;10435073;28;20040;-63
2022/02/17 21:11:54;;;;;;;3.92;0.98;;;;;;;5.57;100.00;97601.72;10435714;28;20051;-65
2022/02/17 21:17:00;;;;;;;3.70;1.08;;;;;;;5.63;100.00;97633.19;10435262;28;20055;-65
2022/02/17 21:22:07;;;;;;;2.03;0.80;;;;;;;5.65;100.00;97611.66;10436100;28;20135;-64
2022/02/17 21:27:10;;;;;;;2.92;0.82;;;;;;;5.58;100.00;97614.09;10433277;28;20049;-64
2022/02/17 21:32:15;;;;;;;2.85;0.93;;;;;;;5.63;100.00;97614.50;10435878;28;20120;-65
2022/02/17 21:37:19;;;;;;;2.63;0.95;;;;;;;5.49;100.00;97652.38;10434246;28;20064;-65
2022/02/17 21:42:22;;;;;;;3.53;1.10;;;;;;;5.30;100.00;97655.97;10434277;28;20049;-65
2022/02/17 21:47:26;;;;;;;4.95;1.20;;;;;;;5.24;100.00;97660.91;10394997;28;20139;-64
2022/02/17 21:52:31;;;;;;;3.97;1.02;;;;;;;5.05;100.00;97650.31;10434898;28;20048;-65
2022/02/17 21:57:34;;;;;;;3.10;1.08;;;;;;;5.17;100.00;97659.00;10436898;28;20068;-65
2022/02/17 22:02:38;;;;;;;4.65;1.00;;;;;;;5.22;100.00;97673.59;10432555;28;20136;-65
2022/02/17 22:07:42;;;;;;;3.40;0.77;;;;;;;5.22;100.00;97670.06;10432280;28;20118;-63
2022/02/17 22:13:10;;;;;;;3.05;0.90;;;;;;;5.22;100.00;97662.91;10432335;28;20049;-64
2022/02/17 22:18:15;;;;;;;4.15;1.10;;;;;;;5.27;100.00;97674.97;10432575;28;20040;-65
2022/02/17 22:23:20;;;;;;;4.03;1.10;;;;;;;5.05;100.00;97688.53;10433282;28;20045;-64
2022/02/17 22:28:23;;;;;;;3.55;1.00;;;;;;;4.98;100.00;97681.25;10432564;28;20585;-65
2022/02/17 22:33:28;;;;;;;3.42;1.00;;;;;;;4.97;100.00;97682.22;10431199;28;20115;-63
2022/02/17 22:38:32;;;;;;;3.80;0.80;;;;;;;4.85;100.00;97687.72;10433799;28;20056;-61
2022/02/17 22:43:35;;;;;;;3.10;0.90;;;;;;;5.10;100.00;97685.44;10428085;28;20133;-65
2022/02/17 22:48:41;;;;;;;2.38;0.80;;;;;;;5.10;100.00;97696.09;10477898;28;20128;-63
2022/02/17 22:53:45;;;;;;;3.90;1.00;;;;;;;5.11;100.00;97689.78;10478008;28;20540;-65
2022/02/17 22:58:48;;;;;;;3.05;0.80;;;;;;;5.00;100.00;97695.28;10482793;28;20700;-65
2022/02/17 23:03:53;;;;;;;3.17;0.88;;;;;;;5.17;95.60;97691.03;10477393;28;20053;-62
2022/02/17 23:14:34;;;;;;;3.10;0.90;;;;;;;5.21;94.72;97682.59;10324823;28;20125;-64
2022/02/17 23:19:39;;;;;;;2.00;0.68;;;;;;;5.28;90.33;97695.34;10451219;28;20076;-64
2022/02/17 23:24:43;;;;;;;4.22;0.85;;;;;;;5.30;89.00;97714.72;10490756;28;20497;-64
2022/02/17 23:29:50;;;;;;;3.15;0.93;;;;;;;5.33;88.21;97717.13;10504730;28;20044;-64
2022/02/17 23:34:55;;;;;;;2.63;0.90;;;;;;;5.31;91.49;97708.41;10501033;28;20122;-62
2022/02/17 23:40:00;;;;;;;2.35;0.90;;;;;;;5.22;93.21;97716.31;10494589;28;20044;-63
2022/02/17 23:45:04;;;;;;;3.20;0.95;;;;;;;5.40;86.73;97723.56;10498804;28;20580;-60
2022/02/17 23:50:10;;;;;;;3.95;1.08;;;;;;;5.39;88.84;97713.84;10499025;28;20060;-64
2022/02/17 23:55:18;;;;;;;3.15;0.82;;;;;;;5.34;95.72;97719.63;10492967;28;20063;-63
